Terminal Aerodrome Forecast
Issued by NWS

Home | Current Version | Previous Version | Text Only | Print | Product List | Glossary On
Versions: 1 2 3 4 5 6 7 8 9 10 11 12 13 14 15 16 17 18 19 20
000
FTUS43 KDLH 250500
TAFHYR
TAF
KHYR 250529Z 2506/2606 16005KT P6SM SCT050 BKN150
      TEMPO 2508/2512 4SM TSRA BR BKN035CB
     FM251500 19004KT P6SM VCSH SCT050 BKN100
     FM260300 18003KT P6SM SCT015=

USA.gov is the U.S. government's official web portal to all federal, state and local government web resources and services.